AXY11 RKSI-WSSS
Flight info
| Callsign | AXY11 |
|---|---|
| Flight time | N/A |
| Altitude | 38000 |
| Route | BOPTA Z51 BEDES Y711 DALSU/N0461F400 Y711 MUGUS Y742 SALMI Q11 TACLE Q12 KABAM N892 MIGUG/K0857F400 N892 MELAS/N0462F400 DCT MABAL |
| Aircraft | A343/H-SDE2E3FGHIJ4J5M1RWXY/LB1D1 |
Departure
| Time | 2026-05-07 07:29 |
|---|---|
| Airport | Incheon International Airport (RKSI) |
Arrival
| Time | N/A |
|---|---|
| Airport | Singapore Changi Airport (WSSS) |
| Time | Latitude | Longitude | Altitude | Speed | Heading |
|---|---|---|---|---|---|
| 2026-05-07 07:08 | 37.46663 | 126.42689 | 64 ft | 0 kts | 234° |
| 2026-05-07 07:16 | 37.46666 | 126.42696 | 63 ft | 4 kts | 234° |
| 2026-05-07 07:16 | 37.46682 | 126.42724 | 36 ft | 4 kts | 234° |
| 2026-05-07 07:16 | 37.46696 | 126.42748 | 34 ft | 4 kts | 247° |
| 2026-05-07 07:17 | 37.46697 | 126.42775 | 33 ft | 4 kts | 310° |
| 2026-05-07 07:17 | 37.46678 | 126.42795 | 34 ft | 2 kts | 323° |
| 2026-05-07 07:17 | 37.46672 | 126.42800 | 34 ft | 0 kts | 323° |
| 2026-05-07 07:22 | 37.46676 | 126.42797 | 35 ft | 2 kts | 323° |
| 2026-05-07 07:22 | 37.46693 | 126.42781 | 32 ft | 4 kts | 324° |
| 2026-05-07 07:22 | 37.46723 | 126.42754 | 37 ft | 6 kts | 322° |
| 2026-05-07 07:23 | 37.46761 | 126.42712 | 37 ft | 8 kts | 317° |
| 2026-05-07 07:23 | 37.46809 | 126.42657 | 37 ft | 10 kts | 317° |
| 2026-05-07 07:23 | 37.46863 | 126.42593 | 37 ft | 11 kts | 314° |
| 2026-05-07 07:23 | 37.46866 | 126.42518 | 37 ft | 5 kts | 233° |
| 2026-05-07 07:24 | 37.46841 | 126.42476 | 37 ft | 7 kts | 232° |
| 2026-05-07 07:24 | 37.46819 | 126.42417 | 37 ft | 7 kts | 269° |
| 2026-05-07 07:24 | 37.46847 | 126.42363 | 37 ft | 9 kts | 319° |
| 2026-05-07 07:24 | 37.46911 | 126.42305 | 37 ft | 13 kts | 324° |
| 2026-05-07 07:25 | 37.47102 | 126.42135 | 37 ft | 20 kts | 325° |
| 2026-05-07 07:25 | 37.47194 | 126.42054 | 37 ft | 14 kts | 325° |
| 2026-05-07 07:25 | 37.47266 | 126.41989 | 37 ft | 11 kts | 324° |
| 2026-05-07 07:26 | 37.47329 | 126.41933 | 37 ft | 11 kts | 324° |
| 2026-05-07 07:26 | 37.47390 | 126.41878 | 37 ft | 11 kts | 322° |
| 2026-05-07 07:26 | 37.47403 | 126.41812 | 37 ft | 6 kts | 249° |
| 2026-05-07 07:26 | 37.47375 | 126.41758 | 37 ft | 9 kts | 234° |
| 2026-05-07 07:27 | 37.47335 | 126.41688 | 37 ft | 11 kts | 234° |
| 2026-05-07 07:27 | 37.47288 | 126.41606 | 37 ft | 11 kts | 232° |
| 2026-05-07 07:27 | 37.47246 | 126.41598 | 37 ft | 7 kts | 180° |
| 2026-05-07 07:27 | 37.47208 | 126.41623 | 37 ft | 1 kts | 145° |
| 2026-05-07 07:28 | 37.47200 | 126.41630 | 37 ft | 9 kts | 145° |
| 2026-05-07 07:28 | 37.47034 | 126.41777 | 37 ft | 56 kts | 145° |
| 2026-05-07 07:28 | 37.46565 | 126.42190 | 36 ft | 108 kts | 144° |
| 2026-05-07 07:28 | 37.45829 | 126.42852 | 37 ft | 150 kts | 144° |
| 2026-05-07 07:29 | 37.44877 | 126.43692 | 104 ft | 182 kts | 147° |
| 2026-05-07 07:29 | 37.43847 | 126.44620 | 733 ft | 181 kts | 150° |
| 2026-05-07 07:29 | 37.42738 | 126.45407 | 1359 ft | 191 kts | 154° |
| 2026-05-07 07:29 | 37.41494 | 126.46268 | 1640 ft | 217 kts | 153° |
| 2026-05-07 07:30 | 37.40097 | 126.47287 | 1910 ft | 248 kts | 151° |
| 2026-05-07 07:30 | 37.38535 | 126.48371 | 2571 ft | 261 kts | 160° |
| 2026-05-07 07:30 | 37.36793 | 126.49087 | 3468 ft | 268 kts | 167° |
| 2026-05-07 07:30 | 37.34969 | 126.49696 | 4419 ft | 273 kts | 168° |
| 2026-05-07 07:31 | 37.33129 | 126.50303 | 5332 ft | 276 kts | 169° |
| 2026-05-07 07:31 | 37.31265 | 126.50922 | 6290 ft | 276 kts | 169° |
| 2026-05-07 07:31 | 37.29395 | 126.51549 | 7136 ft | 280 kts | 170° |
| 2026-05-07 07:31 | 37.27531 | 126.52343 | 7715 ft | 286 kts | 161° |
| 2026-05-07 07:32 | 37.25740 | 126.53490 | 8377 ft | 291 kts | 157° |
| 2026-05-07 07:32 | 37.23961 | 126.54709 | 9283 ft | 291 kts | 158° |
| 2026-05-07 07:32 | 37.22184 | 126.55926 | 10152 ft | 292 kts | 159° |
| 2026-05-07 07:32 | 37.20352 | 126.57166 | 10613 ft | 308 kts | 159° |
| 2026-05-07 07:33 | 37.18401 | 126.58477 | 10904 ft | 328 kts | 159° |
| 2026-05-07 07:33 | 37.16332 | 126.59870 | 11203 ft | 346 kts | 158° |
| 2026-05-07 07:33 | 37.14163 | 126.61324 | 11606 ft | 358 kts | 159° |
| 2026-05-07 07:33 | 37.11839 | 126.62357 | 12180 ft | 352 kts | 177° |
| 2026-05-07 07:34 | 37.09399 | 126.62544 | 12721 ft | 353 kts | 186° |
| 2026-05-07 07:34 | 37.06939 | 126.62512 | 12930 ft | 354 kts | 187° |
| 2026-05-07 07:34 | 37.04474 | 126.62463 | 12913 ft | 354 kts | 187° |
| 2026-05-07 07:34 | 37.02010 | 126.62420 | 12898 ft | 354 kts | 187° |
| 2026-05-07 07:35 | 36.99544 | 126.62382 | 12896 ft | 355 kts | 187° |
| 2026-05-07 07:35 | 36.97106 | 126.62356 | 12916 ft | 355 kts | 186° |
| 2026-05-07 07:35 | 36.94624 | 126.62381 | 13238 ft | 359 kts | 186° |
| 2026-05-07 07:35 | 36.92118 | 126.62417 | 13929 ft | 360 kts | 186° |
| 2026-05-07 07:36 | 36.89601 | 126.62452 | 14625 ft | 362 kts | 186° |
| 2026-05-07 07:36 | 36.87076 | 126.62471 | 15301 ft | 363 kts | 188° |
| 2026-05-07 07:36 | 36.84550 | 126.62337 | 15982 ft | 364 kts | 190° |
| 2026-05-07 07:36 | 36.82005 | 126.62157 | 16618 ft | 368 kts | 189° |
| 2026-05-07 07:37 | 36.79431 | 126.61985 | 17274 ft | 372 kts | 189° |
| 2026-05-07 07:37 | 36.76837 | 126.61823 | 17906 ft | 375 kts | 189° |
| 2026-05-07 07:37 | 36.74201 | 126.61762 | 18467 ft | 383 kts | 184° |
| 2026-05-07 07:37 | 36.71528 | 126.62208 | 18999 ft | 392 kts | 176° |
| 2026-05-07 07:38 | 36.68841 | 126.62963 | 19558 ft | 398 kts | 173° |
| 2026-05-07 07:38 | 36.66149 | 126.63867 | 20103 ft | 403 kts | 172° |
| 2026-05-07 07:38 | 36.63443 | 126.64835 | 20637 ft | 407 kts | 172° |
| 2026-05-07 07:38 | 36.60713 | 126.65818 | 21134 ft | 410 kts | 172° |
| 2026-05-07 07:39 | 36.57961 | 126.66792 | 21662 ft | 412 kts | 173° |
| 2026-05-07 07:39 | 36.55191 | 126.67750 | 22167 ft | 415 kts | 173° |
| 2026-05-07 07:39 | 36.52391 | 126.68702 | 22666 ft | 418 kts | 174° |
| 2026-05-07 07:39 | 36.49573 | 126.69648 | 23172 ft | 421 kts | 174° |
| 2026-05-07 07:40 | 36.46733 | 126.70597 | 23627 ft | 424 kts | 174° |
| 2026-05-07 07:40 | 36.43915 | 126.71535 | 24004 ft | 427 kts | 174° |
| 2026-05-07 07:40 | 36.41037 | 126.72493 | 24403 ft | 430 kts | 174° |
| 2026-05-07 07:40 | 36.38142 | 126.73457 | 24763 ft | 433 kts | 174° |
| 2026-05-07 07:41 | 36.35215 | 126.74443 | 25138 ft | 436 kts | 174° |
| 2026-05-07 07:41 | 36.32280 | 126.75434 | 25499 ft | 439 kts | 174° |
| 2026-05-07 07:41 | 36.29310 | 126.76436 | 25890 ft | 442 kts | 174° |
| 2026-05-07 07:41 | 36.26341 | 126.77438 | 26287 ft | 444 kts | 174° |
| 2026-05-07 07:42 | 36.23349 | 126.78448 | 26661 ft | 446 kts | 174° |
| 2026-05-07 07:42 | 36.20341 | 126.79461 | 27013 ft | 449 kts | 174° |
| 2026-05-07 07:42 | 36.17311 | 126.80385 | 27327 ft | 446 kts | 179° |
| 2026-05-07 07:42 | 36.14257 | 126.80840 | 27577 ft | 441 kts | 187° |
| 2026-05-07 07:43 | 36.11203 | 126.80781 | 27903 ft | 437 kts | 192° |
| 2026-05-07 07:43 | 36.08165 | 126.80542 | 28261 ft | 438 kts | 193° |
| 2026-05-07 07:43 | 36.05131 | 126.80225 | 28597 ft | 439 kts | 194° |
| 2026-05-07 07:43 | 36.02080 | 126.79873 | 28935 ft | 441 kts | 194° |
| 2026-05-07 07:44 | 35.99018 | 126.79513 | 29263 ft | 443 kts | 194° |
| 2026-05-07 07:44 | 35.95939 | 126.79155 | 29532 ft | 446 kts | 194° |
| 2026-05-07 07:44 | 35.92840 | 126.78803 | 29819 ft | 449 kts | 194° |
| 2026-05-07 07:44 | 35.89722 | 126.78459 | 30105 ft | 451 kts | 194° |
| 2026-05-07 07:45 | 35.86589 | 126.78124 | 30383 ft | 453 kts | 193° |
| 2026-05-07 07:45 | 35.83437 | 126.77784 | 30658 ft | 454 kts | 193° |
| 2026-05-07 07:45 | 35.80289 | 126.77444 | 30923 ft | 456 kts | 193° |
| 2026-05-07 07:45 | 35.77124 | 126.77102 | 31261 ft | 455 kts | 193° |
| 2026-05-07 07:46 | 35.73972 | 126.76762 | 31591 ft | 454 kts | 193° |
| 2026-05-07 07:46 | 35.70827 | 126.76424 | 31939 ft | 453 kts | 193° |
| 2026-05-07 07:46 | 35.67688 | 126.76087 | 32309 ft | 452 kts | 193° |
| 2026-05-07 07:46 | 35.64559 | 126.75751 | 32671 ft | 451 kts | 193° |
| 2026-05-07 07:47 | 35.61481 | 126.75420 | 33001 ft | 450 kts | 193° |
| 2026-05-07 07:47 | 35.58367 | 126.75085 | 33298 ft | 449 kts | 192° |
| 2026-05-07 07:47 | 35.55242 | 126.74746 | 33398 ft | 454 kts | 192° |
| 2026-05-07 07:47 | 35.52099 | 126.74407 | 33731 ft | 452 kts | 192° |
| 2026-05-07 07:48 | 35.48978 | 126.74077 | 34145 ft | 449 kts | 192° |
| 2026-05-07 07:48 | 35.45876 | 126.73750 | 34458 ft | 447 kts | 193° |
| 2026-05-07 07:48 | 35.42781 | 126.73420 | 34754 ft | 446 kts | 193° |
| 2026-05-07 07:48 | 35.39693 | 126.73088 | 35004 ft | 445 kts | 193° |
| 2026-05-07 07:49 | 35.36609 | 126.72755 | 35149 ft | 447 kts | 193° |
| 2026-05-07 07:49 | 35.33499 | 126.72417 | 35269 ft | 449 kts | 193° |
| 2026-05-07 07:49 | 35.30388 | 126.72082 | 35549 ft | 448 kts | 193° |
| 2026-05-07 07:49 | 35.27285 | 126.71751 | 35822 ft | 447 kts | 193° |
| 2026-05-07 07:50 | 35.24194 | 126.71423 | 36074 ft | 446 kts | 193° |
| 2026-05-07 07:50 | 35.21108 | 126.71095 | 36307 ft | 445 kts | 193° |
| 2026-05-07 07:50 | 35.18024 | 126.70767 | 36434 ft | 447 kts | 193° |
| 2026-05-07 07:51 | 35.11774 | 126.70097 | 36633 ft | 452 kts | 193° |
| 2026-05-07 07:51 | 35.09707 | 126.69883 | 36797 ft | 451 kts | 193° |
| 2026-05-07 07:51 | 35.06580 | 126.69556 | 37039 ft | 450 kts | 193° |
| 2026-05-07 07:51 | 35.03465 | 126.69226 | 37253 ft | 449 kts | 193° |
| 2026-05-07 07:52 | 34.99340 | 126.68787 | 37532 ft | 449 kts | 193° |
| 2026-05-07 07:52 | 34.96231 | 126.68455 | 37733 ft | 449 kts | 193° |
| 2026-05-07 07:52 | 34.93121 | 126.68124 | 37895 ft | 449 kts | 193° |
| 2026-05-07 07:53 | 34.86882 | 126.67462 | 37929 ft | 448 kts | 193° |
| 2026-05-07 07:53 | 34.81731 | 126.66922 | 37929 ft | 446 kts | 193° |
| 2026-05-07 07:54 | 34.75551 | 126.66269 | 37930 ft | 447 kts | 193° |
| 2026-05-07 07:54 | 34.69338 | 126.65613 | 37928 ft | 448 kts | 193° |
| 2026-05-07 07:55 | 34.63132 | 126.64959 | 37929 ft | 448 kts | 193° |
| 2026-05-07 07:55 | 34.56928 | 126.64308 | 37922 ft | 448 kts | 193° |
| 2026-05-07 07:56 | 34.50719 | 126.63658 | 37932 ft | 447 kts | 193° |
| 2026-05-07 07:56 | 34.44520 | 126.63010 | 37932 ft | 447 kts | 193° |
| 2026-05-07 07:57 | 34.38326 | 126.62364 | 37924 ft | 447 kts | 193° |
| 2026-05-07 07:57 | 34.32108 | 126.61713 | 37933 ft | 449 kts | 193° |
| 2026-05-07 07:58 | 34.25882 | 126.61064 | 37935 ft | 449 kts | 193° |
| 2026-05-07 07:58 | 34.19655 | 126.60424 | 37915 ft | 449 kts | 192° |
| 2026-05-07 07:59 | 34.13451 | 126.59771 | 37936 ft | 451 kts | 192° |
| 2026-05-07 07:59 | 34.07183 | 126.59114 | 37938 ft | 452 kts | 192° |
| 2026-05-07 08:00 | 34.00913 | 126.58462 | 37939 ft | 452 kts | 192° |
| 2026-05-07 08:00 | 33.94634 | 126.57811 | 37939 ft | 453 kts | 192° |
| 2026-05-07 08:01 | 33.88347 | 126.57160 | 37938 ft | 454 kts | 192° |
| 2026-05-07 08:01 | 33.82229 | 126.55814 | 37937 ft | 442 kts | 204° |
| 2026-05-07 08:02 | 33.76419 | 126.53455 | 37936 ft | 440 kts | 206° |
| 2026-05-07 08:02 | 33.70659 | 126.50932 | 37938 ft | 441 kts | 206° |
| 2026-05-07 08:03 | 33.64892 | 126.48399 | 37937 ft | 440 kts | 206° |
| 2026-05-07 08:03 | 33.59137 | 126.45898 | 37926 ft | 440 kts | 206° |
| 2026-05-07 08:04 | 33.53356 | 126.43399 | 37940 ft | 441 kts | 206° |
| 2026-05-07 08:04 | 33.47609 | 126.40921 | 37939 ft | 443 kts | 206° |
| 2026-05-07 08:05 | 33.41810 | 126.38429 | 37915 ft | 443 kts | 205° |
| 2026-05-07 08:05 | 33.35996 | 126.35933 | 37938 ft | 444 kts | 206° |
| 2026-05-07 08:06 | 33.30179 | 126.33433 | 37935 ft | 444 kts | 206° |
| 2026-05-07 08:06 | 33.24359 | 126.30936 | 37937 ft | 444 kts | 206° |
| 2026-05-07 08:07 | 33.18531 | 126.28440 | 37938 ft | 444 kts | 205° |
| 2026-05-07 08:07 | 33.12714 | 126.25953 | 37941 ft | 444 kts | 205° |
| 2026-05-07 08:08 | 33.06891 | 126.23468 | 37947 ft | 445 kts | 206° |
| 2026-05-07 08:08 | 33.01064 | 126.20984 | 37946 ft | 445 kts | 206° |
| 2026-05-07 08:09 | 32.95224 | 126.18493 | 37948 ft | 445 kts | 206° |
| 2026-05-07 08:09 | 32.89408 | 126.15990 | 37945 ft | 445 kts | 206° |
| 2026-05-07 08:10 | 32.83577 | 126.13483 | 37944 ft | 445 kts | 206° |
| 2026-05-07 08:10 | 32.77746 | 126.10985 | 37947 ft | 446 kts | 206° |
| 2026-05-07 08:11 | 32.71910 | 126.08491 | 37947 ft | 446 kts | 206° |
| 2026-05-07 08:11 | 32.66070 | 126.05999 | 37933 ft | 446 kts | 206° |
| 2026-05-07 08:12 | 32.60229 | 126.03510 | 37949 ft | 446 kts | 206° |